sensor_id;sensor_type;location;lat;lon;timestamp;temperature;humidity
27559;DHT22;15002;52.028;5.670;2022-07-21T00:00:38;24.30;95.60
27559;DHT22;15002;52.028;5.670;2022-07-21T00:03:03;24.20;95.90
27559;DHT22;15002;52.028;5.670;2022-07-21T00:05:29;24.20;96.20
27559;DHT22;15002;52.028;5.670;2022-07-21T00:07:55;24.30;96.20
27559;DHT22;15002;52.028;5.670;2022-07-21T00:10:22;24.20;95.70
27559;DHT22;15002;52.028;5.670;2022-07-21T00:12:48;24.30;95.40
27559;DHT22;15002;52.028;5.670;2022-07-21T00:15:16;24.20;95.50
27559;DHT22;15002;52.028;5.670;2022-07-21T00:17:42;24.20;95.50
27559;DHT22;15002;52.028;5.670;2022-07-21T00:20:09;24.10;95.80
27559;DHT22;15002;52.028;5.670;2022-07-21T00:22:35;24.00;95.80
27559;DHT22;15002;52.028;5.670;2022-07-21T00:25:01;24.00;96.50
27559;DHT22;15002;52.028;5.670;2022-07-21T00:27:26;24.10;96.30
27559;DHT22;15002;52.028;5.670;2022-07-21T00:29:52;24.20;96.50
27559;DHT22;15002;52.028;5.670;2022-07-21T00:32:17;24.10;96.60
27559;DHT22;15002;52.028;5.670;2022-07-21T00:34:43;24.20;96.30
27559;DHT22;15002;52.028;5.670;2022-07-21T00:37:12;24.00;96.60
27559;DHT22;15002;52.028;5.670;2022-07-21T00:39:37;24.10;96.90
27559;DHT22;15002;52.028;5.670;2022-07-21T00:42:03;24.10;97.00
27559;DHT22;15002;52.028;5.670;2022-07-21T00:44:29;24.20;96.60
27559;DHT22;15002;52.028;5.670;2022-07-21T00:46:55;24.10;96.70
27559;DHT22;15002;52.028;5.670;2022-07-21T00:49:21;24.10;96.70
27559;DHT22;15002;52.028;5.670;2022-07-21T00:51:48;24.10;96.60
27559;DHT22;15002;52.028;5.670;2022-07-21T00:54:18;24.20;96.40
27559;DHT22;15002;52.028;5.670;2022-07-21T00:56:45;24.10;96.90
27559;DHT22;15002;52.028;5.670;2022-07-21T00:59:11;24.10;96.90
27559;DHT22;15002;52.028;5.670;2022-07-21T01:01:37;24.10;97.00
27559;DHT22;15002;52.028;5.670;2022-07-21T01:04:02;24.10;96.90
27559;DHT22;15002;52.028;5.670;2022-07-21T01:06:30;24.10;96.90
27559;DHT22;15002;52.028;5.670;2022-07-21T01:08:56;24.10;97.00
27559;DHT22;15002;52.028;5.670;2022-07-21T01:11:24;24.10;96.90
27559;DHT22;15002;52.028;5.670;2022-07-21T01:13:50;24.10;97.10
27559;DHT22;15002;52.028;5.670;2022-07-21T01:16:16;24.10;97.20
27559;DHT22;15002;52.028;5.670;2022-07-21T01:18:42;24.10;96.70
27559;DHT22;15002;52.028;5.670;2022-07-21T01:21:34;24.00;96.90
27559;DHT22;15002;52.028;5.670;2022-07-21T01:24:01;23.90;97.10
27559;DHT22;15002;52.028;5.670;2022-07-21T01:26:27;23.90;97.00
27559;DHT22;15002;52.028;5.670;2022-07-21T01:28:53;23.90;97.10
27559;DHT22;15002;52.028;5.670;2022-07-21T01:31:19;23.80;97.20
27559;DHT22;15002;52.028;5.670;2022-07-21T01:33:45;23.80;97.30
27559;DHT22;15002;52.028;5.670;2022-07-21T01:36:11;23.80;97.60
27559;DHT22;15002;52.028;5.670;2022-07-21T01:38:37;23.70;97.40
27559;DHT22;15002;52.028;5.670;2022-07-21T01:41:21;23.80;97.30
27559;DHT22;15002;52.028;5.670;2022-07-21T01:44:02;23.80;97.20
27559;DHT22;15002;52.028;5.670;2022-07-21T01:46:30;23.80;97.10
27559;DHT22;15002;52.028;5.670;2022-07-21T01:48:56;23.80;97.00
27559;DHT22;15002;52.028;5.670;2022-07-21T01:51:23;24.00;96.70
27559;DHT22;15002;52.028;5.670;2022-07-21T01:53:49;23.90;97.00
27559;DHT22;15002;52.028;5.670;2022-07-21T01:56:15;23.90;96.90
27559;DHT22;15002;52.028;5.670;2022-07-21T01:58:43;23.90;96.90
27559;DHT22;15002;52.028;5.670;2022-07-21T02:01:09;23.90;97.00
27559;DHT22;15002;52.028;5.670;2022-07-21T02:03:35;23.90;96.80
27559;DHT22;15002;52.028;5.670;2022-07-21T02:06:05;23.70;96.90
27559;DHT22;15002;52.028;5.670;2022-07-21T02:08:31;23.60;97.20
27559;DHT22;15002;52.028;5.670;2022-07-21T02:10:57;23.60;97.40
27559;DHT22;15002;52.028;5.670;2022-07-21T02:13:23;23.50;97.50
27559;DHT22;15002;52.028;5.670;2022-07-21T02:15:49;23.40;97.80
27559;DHT22;15002;52.028;5.670;2022-07-21T02:18:15;23.40;97.60
27559;DHT22;15002;52.028;5.670;2022-07-21T02:20:40;23.40;97.90
27559;DHT22;15002;52.028;5.670;2022-07-21T02:23:06;23.40;97.80
27559;DHT22;15002;52.028;5.670;2022-07-21T02:25:32;23.50;97.80
27559;DHT22;15002;52.028;5.670;2022-07-21T02:27:57;23.50;97.70
27559;DHT22;15002;52.028;5.670;2022-07-21T02:30:23;23.40;97.70
27559;DHT22;15002;52.028;5.670;2022-07-21T02:32:49;23.40;97.70
27559;DHT22;15002;52.028;5.670;2022-07-21T02:35:14;23.40;97.90
27559;DHT22;15002;52.028;5.670;2022-07-21T02:37:40;23.40;97.60
27559;DHT22;15002;52.028;5.670;2022-07-21T02:40:06;23.40;97.60
27559;DHT22;15002;52.028;5.670;2022-07-21T02:42:32;23.50;97.60
27559;DHT22;15002;52.028;5.670;2022-07-21T02:44:57;23.40;97.60
27559;DHT22;15002;52.028;5.670;2022-07-21T02:47:23;23.30;97.90
27559;DHT22;15002;52.028;5.670;2022-07-21T02:49:49;23.40;97.80
27559;DHT22;15002;52.028;5.670;2022-07-21T02:52:14;23.30;97.80
27559;DHT22;15002;52.028;5.670;2022-07-21T02:54:40;23.40;97.90
27559;DHT22;15002;52.028;5.670;2022-07-21T02:57:06;23.40;97.80
27559;DHT22;15002;52.028;5.670;2022-07-21T02:59:31;23.40;97.60
27559;DHT22;15002;52.028;5.670;2022-07-21T03:01:57;23.40;97.80
27559;DHT22;15002;52.028;5.670;2022-07-21T03:04:23;23.40;97.90
27559;DHT22;15002;52.028;5.670;2022-07-21T03:06:48;23.30;97.90
27559;DHT22;15002;52.028;5.670;2022-07-21T03:09:14;23.20;98.00
27559;DHT22;15002;52.028;5.670;2022-07-21T03:11:39;23.30;98.10
27559;DHT22;15002;52.028;5.670;2022-07-21T03:14:05;23.20;98.20
27559;DHT22;15002;52.028;5.670;2022-07-21T03:16:31;23.20;98.20
27559;DHT22;15002;52.028;5.670;2022-07-21T03:18:56;23.20;98.20
27559;DHT22;15002;52.028;5.670;2022-07-21T03:21:22;23.20;98.30
27559;DHT22;15002;52.028;5.670;2022-07-21T03:23:48;23.20;98.30
27559;DHT22;15002;52.028;5.670;2022-07-21T03:26:15;23.20;98.40
27559;DHT22;15002;52.028;5.670;2022-07-21T03:28:43;23.20;98.30
27559;DHT22;15002;52.028;5.670;2022-07-21T03:31:09;23.20;98.30
27559;DHT22;15002;52.028;5.670;2022-07-21T03:33:35;23.10;98.50
27559;DHT22;15002;52.028;5.670;2022-07-21T03:36:01;23.10;98.60
27559;DHT22;15002;52.028;5.670;2022-07-21T03:38:27;23.10;98.60
27559;DHT22;15002;52.028;5.670;2022-07-21T03:40:52;23.10;98.80
27559;DHT22;15002;52.028;5.670;2022-07-21T03:43:19;23.10;98.80
27559;DHT22;15002;52.028;5.670;2022-07-21T03:45:45;23.20;98.80
27559;DHT22;15002;52.028;5.670;2022-07-21T03:48:11;23.20;98.70
27559;DHT22;15002;52.028;5.670;2022-07-21T03:50:39;23.10;99.00
27559;DHT22;15002;52.028;5.670;2022-07-21T03:53:05;23.10;98.80
27559;DHT22;15002;52.028;5.670;2022-07-21T03:55:31;23.20;98.90
27559;DHT22;15002;52.028;5.670;2022-07-21T03:57:59;23.20;98.90
27559;DHT22;15002;52.028;5.670;2022-07-21T04:00:31;23.30;98.60
27559;DHT22;15002;52.028;5.670;2022-07-21T04:02:57;23.20;98.80
27559;DHT22;15002;52.028;5.670;2022-07-21T04:05:24;23.20;99.00
27559;DHT22;15002;52.028;5.670;2022-07-21T04:07:51;23.20;98.90
27559;DHT22;15002;52.028;5.670;2022-07-21T04:10:19;23.10;99.10
27559;DHT22;15002;52.028;5.670;2022-07-21T04:12:46;23.10;99.10
27559;DHT22;15002;52.028;5.670;2022-07-21T04:15:12;23.10;99.20
27559;DHT22;15002;52.028;5.670;2022-07-21T04:17:39;23.00;99.40
27559;DHT22;15002;52.028;5.670;2022-07-21T04:20:06;23.00;99.70
27559;DHT22;15002;52.028;5.670;2022-07-21T04:22:33;23.00;99.30
27559;DHT22;15002;52.028;5.670;2022-07-21T04:24:59;23.10;99.10
27559;DHT22;15002;52.028;5.670;2022-07-21T04:27:25;23.10;99.10
27559;DHT22;15002;52.028;5.670;2022-07-21T04:29:51;23.20;99.20
27559;DHT22;15002;52.028;5.670;2022-07-21T04:32:17;23.10;99.20
27559;DHT22;15002;52.028;5.670;2022-07-21T04:34:42;23.20;98.90
27559;DHT22;15002;52.028;5.670;2022-07-21T04:37:08;23.40;98.90
27559;DHT22;15002;52.028;5.670;2022-07-21T04:39:34;23.30;98.80
27559;DHT22;15002;52.028;5.670;2022-07-21T04:41:59;23.30;98.60
27559;DHT22;15002;52.028;5.670;2022-07-21T04:44:25;23.10;99.00
27559;DHT22;15002;52.028;5.670;2022-07-21T04:46:51;23.20;99.00
27559;DHT22;15002;52.028;5.670;2022-07-21T04:49:16;23.30;98.80
27559;DHT22;15002;52.028;5.670;2022-07-21T04:51:42;23.30;98.80
27559;DHT22;15002;52.028;5.670;2022-07-21T04:54:08;23.30;98.90
27559;DHT22;15002;52.028;5.670;2022-07-21T04:56:34;23.20;99.00
27559;DHT22;15002;52.028;5.670;2022-07-21T04:59:00;23.30;99.20
27559;DHT22;15002;52.028;5.670;2022-07-21T05:01:26;23.20;99.30
27559;DHT22;15002;52.028;5.670;2022-07-21T05:03:52;23.20;99.50
27559;DHT22;15002;52.028;5.670;2022-07-21T05:06:18;23.10;99.70
27559;DHT22;15002;52.028;5.670;2022-07-21T05:08:43;23.10;99.90
27559;DHT22;15002;52.028;5.670;2022-07-21T05:11:09;23.10;99.90
27559;DHT22;15002;52.028;5.670;2022-07-21T05:13:35;23.10;99.70
27559;DHT22;15002;52.028;5.670;2022-07-21T05:16:00;23.10;99.90
27559;DHT22;15002;52.028;5.670;2022-07-21T05:18:26;23.10;99.60
27559;DHT22;15002;52.028;5.670;2022-07-21T05:20:52;23.10;99.60
27559;DHT22;15002;52.028;5.670;2022-07-21T05:23:17;23.10;99.70
27559;DHT22;15002;52.028;5.670;2022-07-21T05:25:43;23.20;99.60
27559;DHT22;15002;52.028;5.670;2022-07-21T05:28:08;23.10;99.70
27559;DHT22;15002;52.028;5.670;2022-07-21T05:30:34;23.10;99.90
27559;DHT22;15002;52.028;5.670;2022-07-21T05:33:00;23.10;99.90
27559;DHT22;15002;52.028;5.670;2022-07-21T05:35:26;23.20;99.70
27559;DHT22;15002;52.028;5.670;2022-07-21T05:37:52;23.40;99.30
27559;DHT22;15002;52.028;5.670;2022-07-21T05:40:17;23.40;99.40
27559;DHT22;15002;52.028;5.670;2022-07-21T05:42:44;23.30;99.60
27559;DHT22;15002;52.028;5.670;2022-07-21T05:45:10;23.20;99.40
27559;DHT22;15002;52.028;5.670;2022-07-21T05:47:37;23.00;99.90
27559;DHT22;15002;52.028;5.670;2022-07-21T05:50:03;22.90;99.90
27559;DHT22;15002;52.028;5.670;2022-07-21T05:52:29;23.00;99.90
27559;DHT22;15002;52.028;5.670;2022-07-21T05:54:54;23.00;99.90
27559;DHT22;15002;52.028;5.670;2022-07-21T05:57:20;23.10;99.90
27559;DHT22;15002;52.028;5.670;2022-07-21T05:59:46;23.00;99.90
27559;DHT22;15002;52.028;5.670;2022-07-21T06:02:12;23.00;99.90
27559;DHT22;15002;52.028;5.670;2022-07-21T06:04:37;23.00;99.90
27559;DHT22;15002;52.028;5.670;2022-07-21T06:07:03;22.90;99.90
27559;DHT22;15002;52.028;5.670;2022-07-21T06:09:29;22.90;99.90
27559;DHT22;15002;52.028;5.670;2022-07-21T06:11:55;22.90;99.90
27559;DHT22;15002;52.028;5.670;2022-07-21T06:14:21;22.80;99.90
27559;DHT22;15002;52.028;5.670;2022-07-21T06:16:47;22.80;99.90
27559;DHT22;15002;52.028;5.670;2022-07-21T06:19:13;22.80;99.70
27559;DHT22;15002;52.028;5.670;2022-07-21T06:21:38;22.90;99.60
27559;DHT22;15002;52.028;5.670;2022-07-21T06:24:06;22.90;99.50
27559;DHT22;15002;52.028;5.670;2022-07-21T06:26:32;22.90;99.20
27559;DHT22;15002;52.028;5.670;2022-07-21T06:28:58;23.00;99.20
27559;DHT22;15002;52.028;5.670;2022-07-21T06:31:23;23.10;98.80
27559;DHT22;15002;52.028;5.670;2022-07-21T06:33:49;23.20;98.90
27559;DHT22;15002;52.028;5.670;2022-07-21T06:36:15;23.30;98.60
27559;DHT22;15002;52.028;5.670;2022-07-21T06:38:41;23.40;98.30
27559;DHT22;15002;52.028;5.670;2022-07-21T06:41:07;23.60;98.00
27559;DHT22;15002;52.028;5.670;2022-07-21T06:43:33;23.70;97.70
27559;DHT22;15002;52.028;5.670;2022-07-21T06:45:59;23.80;97.60
27559;DHT22;15002;52.028;5.670;2022-07-21T06:48:25;24.00;97.30
27559;DHT22;15002;52.028;5.670;2022-07-21T06:50:51;23.90;97.60
27559;DHT22;15002;52.028;5.670;2022-07-21T06:53:17;23.90;97.50
27559;DHT22;15002;52.028;5.670;2022-07-21T06:55:43;24.10;97.10
27559;DHT22;15002;52.028;5.670;2022-07-21T06:58:17;23.90;97.00
27559;DHT22;15002;52.028;5.670;2022-07-21T07:00:44;23.90;97.10
27559;DHT22;15002;52.028;5.670;2022-07-21T07:03:10;24.10;97.10
27559;DHT22;15002;52.028;5.670;2022-07-21T07:05:37;24.20;97.00
27559;DHT22;15002;52.028;5.670;2022-07-21T07:08:03;24.30;96.90
27559;DHT22;15002;52.028;5.670;2022-07-21T07:10:29;24.20;96.80
27559;DHT22;15002;52.028;5.670;2022-07-21T07:12:54;24.20;96.90
27559;DHT22;15002;52.028;5.670;2022-07-21T07:15:21;24.20;96.60
27559;DHT22;15002;52.028;5.670;2022-07-21T07:17:47;24.30;96.40
27559;DHT22;15002;52.028;5.670;2022-07-21T07:20:13;24.30;96.30
27559;DHT22;15002;52.028;5.670;2022-07-21T07:22:39;24.50;96.30
27559;DHT22;15002;52.028;5.670;2022-07-21T07:25:05;24.20;96.60
27559;DHT22;15002;52.028;5.670;2022-07-21T07:27:31;24.10;96.70
27559;DHT22;15002;52.028;5.670;2022-07-21T07:29:57;24.10;97.00
27559;DHT22;15002;52.028;5.670;2022-07-21T07:32:22;24.10;96.90
27559;DHT22;15002;52.028;5.670;2022-07-21T07:34:48;23.80;97.30
27559;DHT22;15002;52.028;5.670;2022-07-21T07:37:14;23.80;97.30
27559;DHT22;15002;52.028;5.670;2022-07-21T07:39:39;23.90;97.10
27559;DHT22;15002;52.028;5.670;2022-07-21T07:42:06;23.90;96.90
27559;DHT22;15002;52.028;5.670;2022-07-21T07:44:32;24.00;96.90
27559;DHT22;15002;52.028;5.670;2022-07-21T07:46:59;24.00;97.10
27559;DHT22;15002;52.028;5.670;2022-07-21T07:49:30;23.90;97.10
27559;DHT22;15002;52.028;5.670;2022-07-21T07:51:57;24.00;96.90
27559;DHT22;15002;52.028;5.670;2022-07-21T07:54:23;23.90;97.10
27559;DHT22;15002;52.028;5.670;2022-07-21T07:56:49;23.90;97.20
27559;DHT22;15002;52.028;5.670;2022-07-21T07:59:15;24.10;96.70
27559;DHT22;15002;52.028;5.670;2022-07-21T08:01:40;24.10;96.70
27559;DHT22;15002;52.028;5.670;2022-07-21T08:04:06;23.90;97.10
27559;DHT22;15002;52.028;5.670;2022-07-21T08:06:32;23.90;97.20
27559;DHT22;15002;52.028;5.670;2022-07-21T08:08:57;24.00;97.20
27559;DHT22;15002;52.028;5.670;2022-07-21T08:11:23;24.30;96.90
27559;DHT22;15002;52.028;5.670;2022-07-21T08:13:49;24.30;96.80
27559;DHT22;15002;52.028;5.670;2022-07-21T08:16:15;24.10;97.10
27559;DHT22;15002;52.028;5.670;2022-07-21T08:18:44;24.00;97.20
27559;DHT22;15002;52.028;5.670;2022-07-21T08:21:10;24.00;97.30
27559;DHT22;15002;52.028;5.670;2022-07-21T08:23:36;24.10;97.20
27559;DHT22;15002;52.028;5.670;2022-07-21T08:26:02;24.00;97.10
27559;DHT22;15002;52.028;5.670;2022-07-21T08:28:27;24.00;97.20
27559;DHT22;15002;52.028;5.670;2022-07-21T08:30:53;23.90;97.60
27559;DHT22;15002;52.028;5.670;2022-07-21T08:33:19;23.80;97.70
27559;DHT22;15002;52.028;5.670;2022-07-21T08:35:45;23.70;97.70
27559;DHT22;15002;52.028;5.670;2022-07-21T08:38:11;23.70;97.60
27559;DHT22;15002;52.028;5.670;2022-07-21T08:40:42;23.80;97.60
27559;DHT22;15002;52.028;5.670;2022-07-21T08:43:08;23.50;97.90
27559;DHT22;15002;52.028;5.670;2022-07-21T08:45:36;23.60;98.00
27559;DHT22;15002;52.028;5.670;2022-07-21T08:48:02;23.70;98.40
27559;DHT22;15002;52.028;5.670;2022-07-21T08:50:31;23.60;98.90
27559;DHT22;15002;52.028;5.670;2022-07-21T08:52:57;23.40;99.50
27559;DHT22;15002;52.028;5.670;2022-07-21T08:55:23;23.50;99.80
27559;DHT22;15002;52.028;5.670;2022-07-21T08:57:49;23.40;99.90
27559;DHT22;15002;52.028;5.670;2022-07-21T09:00:15;23.60;99.90
27559;DHT22;15002;52.028;5.670;2022-07-21T09:02:41;23.30;99.90
27559;DHT22;15002;52.028;5.670;2022-07-21T09:05:09;23.20;99.90
27559;DHT22;15002;52.028;5.670;2022-07-21T09:07:54;23.40;99.90
27559;DHT22;15002;52.028;5.670;2022-07-21T09:10:22;23.30;99.90
27559;DHT22;15002;52.028;5.670;2022-07-21T09:12:54;23.30;99.90
27559;DHT22;15002;52.028;5.670;2022-07-21T09:15:22;22.90;99.90
27559;DHT22;15002;52.028;5.670;2022-07-21T09:18:23;22.80;99.90
27559;DHT22;15002;52.028;5.670;2022-07-21T09:20:51;22.80;99.90
27559;DHT22;15002;52.028;5.670;2022-07-21T09:23:20;22.80;99.90
27559;DHT22;15002;52.028;5.670;2022-07-21T09:25:48;22.80;99.90
27559;DHT22;15002;52.028;5.670;2022-07-21T09:28:22;22.80;99.90
27559;DHT22;15002;52.028;5.670;2022-07-21T09:33:27;22.90;99.90
27559;DHT22;15002;52.028;5.670;2022-07-21T09:35:55;22.90;99.90
27559;DHT22;15002;52.028;5.670;2022-07-21T09:38:22;23.10;99.90
27559;DHT22;15002;52.028;5.670;2022-07-21T09:40:49;22.80;99.90
27559;DHT22;15002;52.028;5.670;2022-07-21T09:43:38;22.80;99.90
27559;DHT22;15002;52.028;5.670;2022-07-21T09:46:12;22.70;99.90
27559;DHT22;15002;52.028;5.670;2022-07-21T09:48:38;22.50;99.90
27559;DHT22;15002;52.028;5.670;2022-07-21T09:53:56;22.50;99.90
27559;DHT22;15002;52.028;5.670;2022-07-21T09:56:24;22.50;99.90
27559;DHT22;15002;52.028;5.670;2022-07-21T09:58:52;22.80;99.90
27559;DHT22;15002;52.028;5.670;2022-07-21T10:01:18;22.70;99.90
27559;DHT22;15002;52.028;5.670;2022-07-21T10:03:45;23.00;99.90
27559;DHT22;15002;52.028;5.670;2022-07-21T10:06:13;22.80;99.90
27559;DHT22;15002;52.028;5.670;2022-07-21T10:08:39;22.80;99.90
27559;DHT22;15002;52.028;5.670;2022-07-21T10:11:07;22.60;99.90
27559;DHT22;15002;52.028;5.670;2022-07-21T10:13:33;22.70;99.90
27559;DHT22;15002;52.028;5.670;2022-07-21T10:15:59;22.70;99.90
27559;DHT22;15002;52.028;5.670;2022-07-21T10:18:26;22.80;99.90
27559;DHT22;15002;52.028;5.670;2022-07-21T10:21:00;22.80;99.90
27559;DHT22;15002;52.028;5.670;2022-07-21T10:25:59;22.50;99.90
27559;DHT22;15002;52.028;5.670;2022-07-21T10:28:24;22.60;99.90
27559;DHT22;15002;52.028;5.670;2022-07-21T10:30:55;22.60;99.90
27559;DHT22;15002;52.028;5.670;2022-07-21T10:36:38;22.80;99.90
27559;DHT22;15002;52.028;5.670;2022-07-21T10:47:17;23.10;99.90
27559;DHT22;15002;52.028;5.670;2022-07-21T10:55:28;23.50;99.90
27559;DHT22;15002;52.028;5.670;2022-07-21T10:58:14;23.50;99.90
27559;DHT22;15002;52.028;5.670;2022-07-21T11:00:48;23.40;99.90
27559;DHT22;15002;52.028;5.670;2022-07-21T11:06:17;23.20;99.90
27559;DHT22;15002;52.028;5.670;2022-07-21T11:09:08;23.10;99.90
27559;DHT22;15002;52.028;5.670;2022-07-21T11:11:37;23.00;99.90
27559;DHT22;15002;52.028;5.670;2022-07-21T11:14:18;23.20;99.90
27559;DHT22;15002;52.028;5.670;2022-07-21T11:19:35;22.70;99.90
27559;DHT22;15002;52.028;5.670;2022-07-21T11:22:28;22.60;99.90
27559;DHT22;15002;52.028;5.670;2022-07-21T11:25:01;22.80;99.90
27559;DHT22;15002;52.028;5.670;2022-07-21T11:27:29;22.70;99.90
27559;DHT22;15002;52.028;5.670;2022-07-21T11:29:57;22.90;99.90
27559;DHT22;15002;52.028;5.670;2022-07-21T11:32:23;23.00;99.90
27559;DHT22;15002;52.028;5.670;2022-07-21T11:37:33;23.10;99.90
27559;DHT22;15002;52.028;5.670;2022-07-21T11:39:59;23.30;99.90
27559;DHT22;15002;52.028;5.670;2022-07-21T11:42:26;23.10;99.90
27559;DHT22;15002;52.028;5.670;2022-07-21T11:44:52;23.20;99.90
27559;DHT22;15002;52.028;5.670;2022-07-21T11:47:18;23.10;99.90
27559;DHT22;15002;52.028;5.670;2022-07-21T11:49:45;23.20;99.90
27559;DHT22;15002;52.028;5.670;2022-07-21T11:52:15;23.40;99.90
27559;DHT22;15002;52.028;5.670;2022-07-21T11:54:50;23.30;99.90
27559;DHT22;15002;52.028;5.670;2022-07-21T11:57:18;23.30;99.90
27559;DHT22;15002;52.028;5.670;2022-07-21T11:59:45;23.30;99.90
27559;DHT22;15002;52.028;5.670;2022-07-21T12:02:44;23.20;99.90
27559;DHT22;15002;52.028;5.670;2022-07-21T12:05:04;23.30;99.90
27559;DHT22;15002;52.028;5.670;2022-07-21T12:07:32;23.60;99.90
27559;DHT22;15002;52.028;5.670;2022-07-21T12:10:14;23.50;99.90
27559;DHT22;15002;52.028;5.670;2022-07-21T12:12:44;23.40;99.90
27559;DHT22;15002;52.028;5.670;2022-07-21T12:15:17;23.40;99.90
27559;DHT22;15002;52.028;5.670;2022-07-21T12:17:47;23.40;99.90
27559;DHT22;15002;52.028;5.670;2022-07-21T12:20:15;23.40;99.90
27559;DHT22;15002;52.028;5.670;2022-07-21T12:22:45;23.40;99.90
27559;DHT22;15002;52.028;5.670;2022-07-21T12:25:16;23.30;99.90
27559;DHT22;15002;52.028;5.670;2022-07-21T12:27:46;23.40;99.90
27559;DHT22;15002;52.028;5.670;2022-07-21T12:33:07;23.40;99.90
27559;DHT22;15002;52.028;5.670;2022-07-21T12:35:33;23.40;99.90
27559;DHT22;15002;52.028;5.670;2022-07-21T12:38:05;23.40;99.90
27559;DHT22;15002;52.028;5.670;2022-07-21T12:40:34;23.20;99.90
27559;DHT22;15002;52.028;5.670;2022-07-21T12:45:57;23.50;99.90
27559;DHT22;15002;52.028;5.670;2022-07-21T12:48:28;23.40;99.90
27559;DHT22;15002;52.028;5.670;2022-07-21T12:51:09;23.40;99.90
27559;DHT22;15002;52.028;5.670;2022-07-21T12:53:44;23.20;99.90
27559;DHT22;15002;52.028;5.670;2022-07-21T12:56:11;23.30;99.90
27559;DHT22;15002;52.028;5.670;2022-07-21T12:58:38;23.40;99.90
27559;DHT22;15002;52.028;5.670;2022-07-21T13:01:05;23.30;99.90
27559;DHT22;15002;52.028;5.670;2022-07-21T13:03:33;23.30;99.90
27559;DHT22;15002;52.028;5.670;2022-07-21T13:06:00;23.40;99.90
27559;DHT22;15002;52.028;5.670;2022-07-21T13:08:26;23.70;99.90
27559;DHT22;15002;52.028;5.670;2022-07-21T13:10:51;23.70;99.90
27559;DHT22;15002;52.028;5.670;2022-07-21T13:13:17;23.80;99.90
27559;DHT22;15002;52.028;5.670;2022-07-21T13:15:43;23.60;99.90
27559;DHT22;15002;52.028;5.670;2022-07-21T13:18:08;23.70;99.90
27559;DHT22;15002;52.028;5.670;2022-07-21T13:20:34;23.70;99.90
27559;DHT22;15002;52.028;5.670;2022-07-21T13:23:00;23.60;99.90
27559;DHT22;15002;52.028;5.670;2022-07-21T13:25:25;23.70;99.90
27559;DHT22;15002;52.028;5.670;2022-07-21T13:27:51;23.70;99.90
27559;DHT22;15002;52.028;5.670;2022-07-21T13:30:17;23.70;99.90
27559;DHT22;15002;52.028;5.670;2022-07-21T13:32:43;23.50;99.90
27559;DHT22;15002;52.028;5.670;2022-07-21T13:35:09;23.40;99.90
27559;DHT22;15002;52.028;5.670;2022-07-21T13:37:35;23.20;99.90
27559;DHT22;15002;52.028;5.670;2022-07-21T13:40:00;23.10;99.90
27559;DHT22;15002;52.028;5.670;2022-07-21T13:42:27;23.30;99.90
27559;DHT22;15002;52.028;5.670;2022-07-21T13:44:52;23.10;99.90
27559;DHT22;15002;52.028;5.670;2022-07-21T13:47:18;23.20;99.90
27559;DHT22;15002;52.028;5.670;2022-07-21T13:49:43;23.20;99.90
27559;DHT22;15002;52.028;5.670;2022-07-21T13:52:09;23.40;99.90
27559;DHT22;15002;52.028;5.670;2022-07-21T13:54:35;23.10;99.90
27559;DHT22;15002;52.028;5.670;2022-07-21T13:57:01;23.10;99.90
27559;DHT22;15002;52.028;5.670;2022-07-21T13:59:27;23.00;99.90
27559;DHT22;15002;52.028;5.670;2022-07-21T14:01:53;23.40;99.90
27559;DHT22;15002;52.028;5.670;2022-07-21T14:04:18;23.40;99.90
27559;DHT22;15002;52.028;5.670;2022-07-21T14:06:44;23.60;99.90
27559;DHT22;15002;52.028;5.670;2022-07-21T14:09:13;23.70;99.90
27559;DHT22;15002;52.028;5.670;2022-07-21T14:11:39;23.70;99.90
27559;DHT22;15002;52.028;5.670;2022-07-21T14:14:05;23.70;99.90
27559;DHT22;15002;52.028;5.670;2022-07-21T14:16:31;23.60;99.90
27559;DHT22;15002;52.028;5.670;2022-07-21T14:18:57;23.80;99.90
27559;DHT22;15002;52.028;5.670;2022-07-21T14:21:23;23.70;99.90
27559;DHT22;15002;52.028;5.670;2022-07-21T14:23:48;23.80;99.90
27559;DHT22;15002;52.028;5.670;2022-07-21T14:26:34;23.70;99.90
27559;DHT22;15002;52.028;5.670;2022-07-21T14:29:00;23.70;99.90
27559;DHT22;15002;52.028;5.670;2022-07-21T14:31:25;23.80;99.90
27559;DHT22;15002;52.028;5.670;2022-07-21T14:33:51;23.90;99.90
27559;DHT22;15002;52.028;5.670;2022-07-21T14:36:16;23.80;99.90
27559;DHT22;15002;52.028;5.670;2022-07-21T14:38:42;23.90;99.90
27559;DHT22;15002;52.028;5.670;2022-07-21T14:41:08;24.00;99.90
27559;DHT22;15002;52.028;5.670;2022-07-21T14:43:33;23.70;99.90
27559;DHT22;15002;52.028;5.670;2022-07-21T14:45:59;23.40;99.90
27559;DHT22;15002;52.028;5.670;2022-07-21T14:48:24;23.30;99.90
27559;DHT22;15002;52.028;5.670;2022-07-21T14:50:50;23.40;99.90
27559;DHT22;15002;52.028;5.670;2022-07-21T14:53:16;23.50;99.90
27559;DHT22;15002;52.028;5.670;2022-07-21T14:55:42;23.70;99.90
27559;DHT22;15002;52.028;5.670;2022-07-21T14:58:07;23.50;99.90
27559;DHT22;15002;52.028;5.670;2022-07-21T15:00:33;23.50;99.90
27559;DHT22;15002;52.028;5.670;2022-07-21T15:02:59;23.50;99.90
27559;DHT22;15002;52.028;5.670;2022-07-21T15:05:24;23.60;99.90
27559;DHT22;15002;52.028;5.670;2022-07-21T15:07:50;23.50;99.90
27559;DHT22;15002;52.028;5.670;2022-07-21T15:10:16;23.50;99.90
27559;DHT22;15002;52.028;5.670;2022-07-21T15:12:42;23.60;99.90
27559;DHT22;15002;52.028;5.670;2022-07-21T15:15:08;23.50;99.90
27559;DHT22;15002;52.028;5.670;2022-07-21T15:17:34;23.60;99.90
27559;DHT22;15002;52.028;5.670;2022-07-21T15:20:00;23.60;99.90
27559;DHT22;15002;52.028;5.670;2022-07-21T15:22:26;23.70;99.90
27559;DHT22;15002;52.028;5.670;2022-07-21T15:24:56;23.70;99.90
27559;DHT22;15002;52.028;5.670;2022-07-21T15:27:22;23.70;99.90
27559;DHT22;15002;52.028;5.670;2022-07-21T15:29:47;23.70;99.90
27559;DHT22;15002;52.028;5.670;2022-07-21T15:32:13;23.70;99.90
27559;DHT22;15002;52.028;5.670;2022-07-21T15:34:38;23.90;99.90
27559;DHT22;15002;52.028;5.670;2022-07-21T15:37:04;23.90;99.90
27559;DHT22;15002;52.028;5.670;2022-07-21T15:39:30;24.00;99.90
27559;DHT22;15002;52.028;5.670;2022-07-21T15:41:55;23.90;99.90
27559;DHT22;15002;52.028;5.670;2022-07-21T15:44:22;23.70;99.90
27559;DHT22;15002;52.028;5.670;2022-07-21T15:46:48;23.50;99.90
27559;DHT22;15002;52.028;5.670;2022-07-21T15:49:14;23.60;99.90
27559;DHT22;15002;52.028;5.670;2022-07-21T15:51:43;23.40;99.90
27559;DHT22;15002;52.028;5.670;2022-07-21T15:54:08;23.30;99.90
27559;DHT22;15002;52.028;5.670;2022-07-21T15:56:34;23.20;99.90
27559;DHT22;15002;52.028;5.670;2022-07-21T15:58:59;23.10;99.90
27559;DHT22;15002;52.028;5.670;2022-07-21T16:01:43;23.20;99.90
27559;DHT22;15002;52.028;5.670;2022-07-21T16:04:09;23.20;99.90
27559;DHT22;15002;52.028;5.670;2022-07-21T16:06:35;23.10;99.90
27559;DHT22;15002;52.028;5.670;2022-07-21T16:09:00;23.00;99.90